^^
Station Historical Data
Daily Summary for February 25, 2017 Units:  Metric    English   Both
« Previous Day
Next Day »
Daily Weekly Monthly Yearly Custom
  High: Low: Average:
Temperature: 32.2 °C 18.1 °C 21.9 °C
Dew Point: 12.1 °C 6.9 °C 10.7 °C
Humidity: 65% 27% 51%
Wind Speed: 19.5km/h 6.4km/h 12.4km/h
Wind Gust: 24.1km/h - -
Wind- - SW
Pressure: 1012.8 hPa 1010 hPa -
Precipitation: 0 mm    
Historical Graphs
 
 
Tabular Data for February 25, 2017
Time Temperature Dew Point Pressure Wind Wind Speed Wind Gust Humidity Rainfall Rate (Hourly) solar Conditions
00:09 21.8 °C 9.3 °C 1011.1 hPa SSW 16.3 km/h 20.9 km/h 45% 0 mm 0.0 W/m2
00:14 21.7 °C 9.6 °C 1011.1 hPa SSW 19.5 km/h 22.5 km/h 46% 0 mm 0.0 W/m2
00:19 21.6 °C 9.5 °C 1011.1 hPa SSW 14.3 km/h 20.9 km/h 46% 0 mm 0.0 W/m2
00:30 21.4 °C 9.6 °C 1011.1 hPa SSW 16.3 km/h 16.3 km/h 47% 0 mm 0.0 W/m2
00:35 21.4 °C 9.6 °C 1011.1 hPa SSW 13 km/h 14.5 km/h 47% 0 mm 0.0 W/m2
00:40 21.3 °C 9.8 °C 1011.1 hPa SSW 13 km/h 19.3 km/h 48% 0 mm 0.0 W/m2
00:45 21.3 °C 9.8 °C 1011.1 hPa SSW 11.1 km/h 17.7 km/h 48% 0 mm 0.0 W/m2
00:50 21.3 °C 9.8 °C 1011.1 hPa SSW 17.7 km/h 17.7 km/h 48% 0 mm 0.0 W/m2
00:55 21.2 °C 10.1 °C 1011.1 hPa SSW 16.3 km/h 17.7 km/h 49% 0 mm 0.0 W/m2
01:05 21.1 °C 10 °C 1011.1 hPa SSW 14.3 km/h 16.1 km/h 49% 0 mm 0.0 W/m2
01:11 21.1 °C 10.3 °C 1011.1 hPa SSW 7.9 km/h 14.5 km/h 50% 0 mm 0.0 W/m2
01:16 20.9 °C 10.1 °C 1010.7 hPa SSW 7.9 km/h 14.5 km/h 50% 0 mm 0.0 W/m2
01:21 20.9 °C 10.1 °C 1011.1 hPa SSW 7.9 km/h 16.1 km/h 50% 0 mm 0.0 W/m2
01:26 20.8 °C 10.3 °C 1010.7 hPa SSW 13 km/h 13 km/h 51% 0 mm 0.0 W/m2
01:36 20.7 °C 10.5 °C 1010.7 hPa SSW 13 km/h 14.5 km/h 52% 0 mm 0.0 W/m2
01:41 20.6 °C 10.4 °C 1010.7 hPa SSW 7.9 km/h 12.9 km/h 52% 0 mm 0.0 W/m2
01:46 20.6 °C 10.4 °C 1010.7 hPa SSW 14.3 km/h 14.5 km/h 52% 0 mm 0.0 W/m2
01:51 20.6 °C 10.4 °C 1010.7 hPa SSW 7.9 km/h 14.5 km/h 52% 0 mm 0.0 W/m2
01:56 20.6 °C 10.4 °C 1010.7 hPa SSW 14.3 km/h 17.7 km/h 52% 0 mm 0.0 W/m2
02:01 20.5 °C 10.6 °C 1010.7 hPa SSW 9.7 km/h 14.5 km/h 53% 0 mm 0.0 W/m2
02:06 20.4 °C 10.5 °C 1010.7 hPa SSW 9.7 km/h 12.9 km/h 53% 0 mm 0.0 W/m2
02:11 20.3 °C 10.4 °C 1010.7 hPa SSW 7.9 km/h 11.3 km/h 53% 0 mm 0.0 W/m2
02:21 20.2 °C 10.6 °C 1010.7 hPa SSW 7.9 km/h 11.3 km/h 54% 0 mm 0.0 W/m2
02:26 20.2 °C 10.6 °C 1010.7 hPa SSW 7.9 km/h 9.7 km/h 54% 0 mm 0.0 W/m2
02:31 20.1 °C 10.5 °C 1010.7 hPa SSW 11.1 km/h 11.3 km/h 54% 0 mm 0.0 W/m2
02:41 20 °C 10.7 °C 1010.4 hPa SSW 13 km/h 16.1 km/h 55% 0 mm 0.0 W/m2
02:51 19.9 °C 10.6 °C 1010.4 hPa SSW 13 km/h 16.1 km/h 55% 0 mm 0.0 W/m2
02:56 19.9 °C 10.9 °C 1010.4 hPa SSW 9.7 km/h 12.9 km/h 56% 0 mm 0.0 W/m2
03:01 19.8 °C 10.8 °C 1010.4 hPa SSW 9.7 km/h 14.5 km/h 56% 0 mm 0.0 W/m2
03:06 19.7 °C 10.7 °C 1010.4 hPa SSW 11.1 km/h 12.9 km/h 56% 0 mm 0.0 W/m2
03:11 19.7 °C 10.9 °C 1010.4 hPa SSW 14.3 km/h 19.3 km/h 57% 0 mm 0.0 W/m2
03:16 19.6 °C 10.8 °C 1010.4 hPa SSW 9.7 km/h 17.7 km/h 57% 0 mm 0.0 W/m2
03:22 19.5 °C 10.8 °C 1010.4 hPa SSW 7.9 km/h 14.5 km/h 57% 0 mm 0.0 W/m2
03:31 19.4 °C 10.9 °C 1010.4 hPa SSW 13 km/h 14.5 km/h 58% 0 mm 0.0 W/m2
03:36 19.4 °C 11.2 °C 1010.4 hPa SSW 13 km/h 17.7 km/h 59% 0 mm 0.0 W/m2
03:41 19.3 °C 11.1 °C 1010 hPa SSW 13 km/h 16.1 km/h 59% 0 mm 0.0 W/m2
03:46 19.3 °C 11.1 °C 1010 hPa SSW 13 km/h 14.5 km/h 59% 0 mm 0.0 W/m2
03:51 19.2 °C 11 °C 1010 hPa SSW 11.1 km/h 14.5 km/h 59% 0 mm 0.0 W/m2
03:57 19.2 °C 11 °C 1010 hPa SSW 7.9 km/h 12.9 km/h 59% 0 mm 0.0 W/m2
04:02 19.1 °C 11.2 °C 1010 hPa SSW 9.7 km/h 11.3 km/h 60% 0 mm 0.0 W/m2
04:07 19.1 °C 11.2 °C 1010 hPa SSW 11.1 km/h 12.9 km/h 60% 0 mm 0.0 W/m2
04:12 19.1 °C 11.2 °C 1010.4 hPa SSW 9.7 km/h 12.9 km/h 60% 0 mm 0.0 W/m2
04:17 19 °C 11.3 °C 1010.4 hPa SSW 11.1 km/h 12.9 km/h 61% 0 mm 0.0 W/m2
04:22 18.9 °C 11.2 °C 1010 hPa SSW 9.7 km/h 12.9 km/h 61% 0 mm 0.0 W/m2
04:27 18.9 °C 11.2 °C 1010 hPa SSW 13 km/h 14.5 km/h 61% 0 mm 0.0 W/m2
04:37 18.9 °C 11.2 °C 1010 hPa SSW 9.7 km/h 11.3 km/h 61% 0 mm 0.0 W/m2
04:42 18.8 °C 11.1 °C 1010 hPa SSW 7.9 km/h 8 km/h 61% 0 mm 0.0 W/m2
04:52 18.7 °C 11 °C 1010 hPa SSW 7.9 km/h 8 km/h 61% 0 mm 0.0 W/m2
05:02 18.6 °C 10.9 °C 1010.4 hPa SSW 9.7 km/h 11.3 km/h 61% 0 mm 0.0 W/m2
05:07 18.6 °C 10.9 °C 1010.4 hPa SSW 6.4 km/h 11.3 km/h 61% 0 mm 0.0 W/m2
05:12 18.6 °C 10.9 °C 1010.4 hPa SSW 7.9 km/h 9.7 km/h 61% 0 mm 0.0 W/m2
05:17 18.6 °C 10.9 °C 1010.4 hPa SSW 11.1 km/h 11.3 km/h 61% 0 mm 0.0 W/m2
05:22 18.6 °C 10.9 °C 1010.4 hPa SSW 9.7 km/h 14.5 km/h 61% 0 mm 0.0 W/m2
05:27 18.6 °C 10.9 °C 1010.7 hPa SW 9.7 km/h 14.5 km/h 61% 0 mm 0.0 W/m2
05:32 18.6 °C 10.9 °C 1010.7 hPa SW 11.1 km/h 16.1 km/h 61% 0 mm 0.0 W/m2
05:37 18.6 °C 10.9 °C 1010.7 hPa SW 11.1 km/h 16.1 km/h 61% 0 mm 0.0 W/m2
05:42 18.6 °C 10.9 °C 1010.7 hPa SW 14.3 km/h 16.1 km/h 61% 0 mm 0.0 W/m2
05:52 18.6 °C 10.9 °C 1010.7 hPa SW 13 km/h 16.1 km/h 61% 0 mm 0.0 W/m2
05:57 18.6 °C 11.2 °C 1011.1 hPa SW 11.1 km/h 12.9 km/h 62% 0 mm 0.0 W/m2
06:03 18.6 °C 11.2 °C 1010.7 hPa SW 9.7 km/h 16.1 km/h 62% 0 mm 0.0 W/m2
06:08 18.5 °C 11.1 °C 1011.1 hPa SW 7.9 km/h 12.9 km/h 62% 0 mm 0.0 W/m2
06:18 18.4 °C 11 °C 1011.1 hPa SW 11.1 km/h 14.5 km/h 62% 0 mm 0.0 W/m2
06:23 18.4 °C 11.2 °C 1011.1 hPa SW 13 km/h 14.5 km/h 63% 0 mm 0.0 W/m2
06:33 18.3 °C 11.1 °C 1011.1 hPa SW 9.7 km/h 12.9 km/h 63% 0 mm 0.0 W/m2
06:38 18.3 °C 11.1 °C 1011.4 hPa SW 7.9 km/h 11.3 km/h 63% 0 mm 0.0 W/m2
06:43 18.2 °C 11 °C 1011.4 hPa SW 9.7 km/h 14.5 km/h 63% 0 mm 5.0 W/m2
06:53 18.1 °C 11.4 °C 1011.4 hPa SW 7.9 km/h 16.1 km/h 65% 0 mm 14.0 W/m2
06:58 18.1 °C 11.4 °C 1011.4 hPa SW 14.3 km/h 16.1 km/h 65% 0 mm 18.0 W/m2
07:03 18.2 °C 11.5 °C 1011.4 hPa SW 11.1 km/h 17.7 km/h 65% 0 mm 26.0 W/m2
07:09 18.2 °C 11.5 °C 1011.7 hPa SW 13 km/h 17.7 km/h 65% 0 mm 39.0 W/m2
07:18 18.3 °C 11.6 °C 1011.7 hPa SW 17.7 km/h 19.3 km/h 65% 0 mm 67.0 W/m2
07:23 18.4 °C 11.7 °C 1011.7 hPa SW 13 km/h 16.1 km/h 65% 0 mm 84.0 W/m2
07:28 18.5 °C 11.6 °C 1011.7 hPa SW 14.3 km/h 17.7 km/h 64% 0 mm 104.0 W/m2
07:34 18.6 °C 11.7 °C 1011.7 hPa SW 13 km/h 16.1 km/h 64% 0 mm 121.0 W/m2
07:43 18.8 °C 11.6 °C 1011.7 hPa SW 16.3 km/h 16.3 km/h 63% 0 mm 165.0 W/m2
07:49 18.9 °C 11.7 °C 1012.1 hPa SW 9.7 km/h 16.1 km/h 63% 0 mm 186.0 W/m2
07:54 19.1 °C 11.9 °C 1012.1 hPa SW 9.7 km/h 17.7 km/h 63% 0 mm 207.0 W/m2
08:01 19.1 °C 11.6 °C 1012.1 hPa SW 16.3 km/h 17.7 km/h 62% 0 mm 229.0 W/m2
08:07 19.2 °C 11.7 °C 1012.1 hPa SW 16.3 km/h 19.3 km/h 62% 0 mm 246.0 W/m2
08:17 19.3 °C 11.8 °C 1012.4 hPa SW 17.7 km/h 22.5 km/h 62% 0 mm 283.0 W/m2
08:22 19.4 °C 11.7 °C 1012.4 hPa SW 19.5 km/h 24.1 km/h 61% 0 mm 316.0 W/m2
08:43 20.1 °C 11.8 °C 1012.4 hPa SW 16.3 km/h 16.3 km/h 59% 0 mm 373.0 W/m2
08:52 20.4 °C 11.9 °C 1012.4 hPa SW 14.3 km/h 19.3 km/h 58% 0 mm 410.0 W/m2
09:03 20.8 °C 11.7 °C 1012.4 hPa SW 16.3 km/h 16.3 km/h 56% 0 mm 445.0 W/m2
09:08 21.2 °C 12.1 °C 1012.8 hPa SW 7.9 km/h 19.3 km/h 56% 0 mm 480.0 W/m2
09:22 21.8 °C 11.8 °C 1012.8 hPa SW 17.7 km/h 19.3 km/h 53% 0 mm 512.0 W/m2
09:28 22.2 °C 11.9 °C 1012.8 hPa SW 16.3 km/h 20.9 km/h 52% 0 mm 547.0 W/m2
09:33 22.2 °C 11.9 °C 1012.8 hPa SW 16.3 km/h 19.3 km/h 52% 0 mm 561.0 W/m2
09:58 23.3 °C 12 °C 1012.8 hPa SW 13 km/h 16.1 km/h 49% 0 mm 638.0 W/m2
10:03 23.6 °C 11.9 °C 1012.8 hPa SW 13 km/h 16.1 km/h 48% 0 mm 652.0 W/m2
10:08 23.8 °C 12.1 °C 1012.8 hPa SW 9.7 km/h 17.7 km/h 48% 0 mm 666.0 W/m2
10:25 24.1 °C 11.8 °C 1012.4 hPa SW 16.3 km/h 16.3 km/h 46% 0 mm 691.0 W/m2
10:41 24.9 °C 11.8 °C 1012.8 hPa SW 9.7 km/h 14.5 km/h 44% 0 mm 731.0 W/m2
10:56 25.7 °C 11.8 °C 1012.8 hPa SW 13 km/h 19.3 km/h 42% 0 mm 770.0 W/m2
11:11 26.6 °C 11.9 °C 1012.4 hPa SW 16.3 km/h 22.5 km/h 40% 0 mm 802.0 W/m2
11:25 26.8 °C 11.7 °C 1012.4 hPa SW 17.7 km/h 20.9 km/h 39% 0 mm 830.0 W/m2
11:38 27.6 °C 11.6 °C 1012.4 hPa SW 13 km/h 20.9 km/h 37% 0 mm 853.0 W/m2
11:44 27.8 °C 11.8 °C 1012.4 hPa SW 14.3 km/h 20.9 km/h 37% 0 mm 861.0 W/m2
11:49 28 °C 11.5 °C 1012.1 hPa SW 14.3 km/h 19.3 km/h 36% 0 mm 875.0 W/m2
12:04 28.7 °C 11.7 °C 1012.1 hPa SW 17.7 km/h 20.9 km/h 35% 0 mm 891.0 W/m2
12:21 29.1 °C 11.6 °C 1011.7 hPa SW 14.3 km/h 19.3 km/h 34% 0 mm 902.0 W/m2
12:29 29.6 °C 11.6 °C 1011.7 hPa SW 13 km/h 19.3 km/h 33% 0 mm 912.0 W/m2
12:39 29.9 °C 11.4 °C 1011.7 hPa SW 9.7 km/h 20.9 km/h 32% 0 mm 918.0 W/m2
13:01 30.6 °C 11 °C 1011.4 hPa SW 13 km/h 14.5 km/h 30% 0 mm 919.0 W/m2
13:15 30.9 °C 11.3 °C 1011.4 hPa SW 6.4 km/h 24.1 km/h 30% 0 mm 921.0 W/m2
13:26 31.3 °C 11.1 °C 1011.4 hPa SW 9.7 km/h 16.1 km/h 29% 0 mm 919.0 W/m2
13:30 31.6 °C 10.9 °C 1011.4 hPa SW 14.3 km/h 19.3 km/h 28% 0 mm 914.0 W/m2
13:38 31.6 °C 10.9 °C 1011.1 hPa SW 17.7 km/h 17.7 km/h 28% 0 mm 911.0 W/m2
13:44 31.8 °C 11 °C 1011.1 hPa SW 7.9 km/h 16.1 km/h 28% 0 mm 907.0 W/m2
13:49 32.1 °C 10.7 °C 1011.1 hPa SW 9.7 km/h 20.9 km/h 27% 0 mm 905.0 W/m2
13:54 32 °C 10.7 °C 1011.1 hPa SW 6.4 km/h 17.7 km/h 27% 0 mm 898.0 W/m2
14:02 32.2 °C 11.4 °C 1010.7 hPa SW 14.3 km/h 17.7 km/h 28% 0 mm 888.0 W/m2
22:46 26.3 °C 8.3 °C 1011.7 hPa SW 19.5 km/h 24.1 km/h 32% 0 mm 0.0 W/m2
22:51 26.2 °C 8.2 °C 1011.7 hPa SW 16.3 km/h 24.1 km/h 32% 0 mm 0.0 W/m2
22:56 26.1 °C 8.1 °C 1011.7 hPa SW 14.3 km/h 19.3 km/h 32% 0 mm 0.0 W/m2
23:01 26 °C 8 °C 1011.7 hPa SW 14.3 km/h 19.3 km/h 32% 0 mm 0.0 W/m2
23:11 25.8 °C 7.9 °C 1011.7 hPa SW 13 km/h 19.3 km/h 32% 0 mm 0.0 W/m2
23:21 25.7 °C 7.8 °C 1011.7 hPa SW 16.3 km/h 19.3 km/h 32% 0 mm 0.0 W/m2
23:26 25.6 °C 7.7 °C 1012.1 hPa SW 14.3 km/h 17.7 km/h 32% 0 mm 0.0 W/m2
23:31 25.4 °C 7.5 °C 1012.1 hPa SW 13 km/h 19.3 km/h 32% 0 mm 0.0 W/m2
23:36 25.3 °C 7.4 °C 1012.1 hPa SW 13 km/h 17.7 km/h 32% 0 mm 0.0 W/m2
23:41 25.3 °C 7.4 °C 1012.1 hPa SW 14.3 km/h 20.9 km/h 32% 0 mm 0.0 W/m2
23:51 25.2 °C 6.9 °C 1012.1 hPa SW 14.3 km/h 17.7 km/h 31% 0 mm 0.0 W/m2
23:56 25.1 °C 7.2 °C 1012.1 hPa SW 14.3 km/h 14.5 km/h 32% 0 mm 0.0 W/m2
Canyon Roadhouse, Fishriver Canyon, Namibia
Compliments of Weather Underground - 2.25 mb